Time;durP1;ratioP1;P1;durP2;ratioP2;P2;SDS_P1;SDS_P2;PMS_P1;PMS_P2;Temp;Humidity;BMP_temperature;BMP_pressure;BME280_temperature;BME280_humidity;BME280_pressure;Samples;Min_cycle;Max_cycle;Signal;HPM_P1;HPM_P2
2023/04/19 00:01:00;;;;;;;10.90;8.30;;;;;;;9.45;69.60;102578.16;4955139;28;20042;-79
2023/04/19 00:03:26;;;;;;;11.82;8.15;;;;;;;9.46;69.61;102572.09;4950685;28;20031;-79
2023/04/19 00:05:53;;;;;;;11.13;7.85;;;;;;;9.48;69.80;102570.38;4953929;28;20268;-79
2023/04/19 00:08:18;;;;;;;12.15;8.93;;;;;;;9.50;69.36;102568.66;4955697;28;20031;-80
2023/04/19 00:10:43;;;;;;;13.45;8.98;;;;;;;9.52;69.50;102572.16;4955614;28;20031;-80
2023/04/19 00:13:09;;;;;;;12.27;8.88;;;;;;;9.52;69.60;102569.56;4954605;28;20098;-79
2023/04/19 00:15:34;;;;;;;13.13;8.63;;;;;;;9.54;69.32;102570.44;4955077;28;20151;-79
2023/04/19 00:18:00;;;;;;;10.80;7.93;;;;;;;9.56;69.44;102560.91;4953650;28;20023;-79
2023/04/19 00:20:26;;;;;;;11.63;7.63;;;;;;;9.57;69.61;102566.97;4954644;28;20575;-80
2023/04/19 00:22:51;;;;;;;12.20;8.63;;;;;;;9.59;69.57;102564.38;4955135;28;20379;-79
2023/04/19 00:25:16;;;;;;;14.20;8.55;;;;;;;9.57;69.93;102565.22;4952616;28;20113;-79
2023/04/19 00:27:41;;;;;;;14.25;9.15;;;;;;;9.59;69.77;102557.47;4952412;28;20082;-79
2023/04/19 00:30:07;;;;;;;12.10;8.45;;;;;;;9.61;69.97;102557.47;4952039;28;20051;-79
2023/04/19 00:32:33;;;;;;;12.15;8.50;;;;;;;9.63;69.57;102555.75;4951300;28;20479;-79
2023/04/19 00:34:58;;;;;;;12.13;8.18;;;;;;;9.62;69.92;102552.28;4953999;28;20035;-79
2023/04/19 00:37:23;;;;;;;13.10;8.50;;;;;;;9.63;69.68;102558.34;4947489;28;20106;-79
2023/04/19 00:39:49;;;;;;;12.18;8.23;;;;;;;9.64;69.66;102554.88;4952320;28;20537;-79
2023/04/19 00:42:14;;;;;;;12.02;8.73;;;;;;;9.63;69.94;102550.53;4951871;28;20106;-79
2023/04/19 00:44:39;;;;;;;12.13;8.60;;;;;;;9.61;70.30;102553.16;4952884;28;20050;-79
2023/04/19 00:47:04;;;;;;;12.18;8.35;;;;;;;9.62;70.17;102557.50;4949635;28;20118;-79
2023/04/19 00:49:30;;;;;;;11.55;8.05;;;;;;;9.63;70.50;102553.16;4950637;28;20038;-79
2023/04/19 00:51:55;;;;;;;12.38;8.07;;;;;;;9.62;70.24;102552.28;4951948;28;20034;-80
2023/04/19 00:54:22;;;;;;;11.48;7.85;;;;;;;9.61;70.48;102549.66;4950321;28;20024;-80
2023/04/19 00:56:47;;;;;;;11.38;7.93;;;;;;;9.61;70.74;102554.88;4948877;28;20090;-79
2023/04/19 00:59:14;;;;;;;13.00;7.78;;;;;;;9.61;70.49;102555.75;4951138;28;20019;-80
2023/04/19 01:01:40;;;;;;;12.50;8.50;;;;;;;9.62;70.86;102554.00;4949715;28;20042;-79
2023/04/19 01:04:06;;;;;;;10.75;7.57;;;;;;;9.62;70.54;102546.22;4951640;28;20039;-79
2023/04/19 01:06:33;;;;;;;13.43;8.52;;;;;;;9.63;70.81;102550.53;4948523;28;20038;-79
2023/04/19 01:08:58;;;;;;;14.13;8.63;;;;;;;9.64;70.97;102547.09;4949744;28;20478;-78
2023/04/19 01:11:24;;;;;;;13.98;8.75;;;;;;;9.61;71.11;102541.88;4951385;28;20035;-79
2023/04/19 01:13:49;;;;;;;12.98;8.77;;;;;;;9.61;71.22;102540.16;4950835;28;20114;-79
2023/04/19 01:16:15;;;;;;;12.98;9.23;;;;;;;9.63;71.15;102547.94;4951526;28;20026;-79
2023/04/19 01:18:40;;;;;;;15.77;9.15;;;;;;;9.62;71.59;102543.59;4952482;28;20467;-79
2023/04/19 01:21:07;;;;;;;12.70;8.65;;;;;;;9.62;71.21;102541.00;4951615;28;20046;-79
2023/04/19 01:23:32;;;;;;;13.35;8.07;;;;;;;9.61;71.33;102540.16;4952463;28;20027;-79
2023/04/19 01:26:00;;;;;;;12.25;8.60;;;;;;;9.60;71.69;102538.41;4951165;28;20034;-79
2023/04/19 01:28:25;;;;;;;12.50;8.10;;;;;;;9.60;71.92;102540.13;4948836;28;20127;-79
2023/04/19 01:30:52;;;;;;;12.88;8.60;;;;;;;9.61;71.87;102544.47;4951225;28;20555;-79
2023/04/19 01:33:17;;;;;;;13.73;9.18;;;;;;;9.60;72.37;102540.13;4952122;28;20521;-79
2023/04/19 01:35:43;;;;;;;13.45;8.55;;;;;;;9.60;72.51;102532.34;4949877;28;20028;-79
2023/04/19 01:38:08;;;;;;;14.18;8.50;;;;;;;9.61;72.46;102531.47;4949559;28;20031;-79
2023/04/19 01:40:33;;;;;;;13.02;8.40;;;;;;;9.61;72.51;102526.28;4948623;28;20029;-79
2023/04/19 01:42:58;;;;;;;11.88;8.38;;;;;;;9.63;72.76;102532.34;4951558;28;20038;-79
2023/04/19 01:45:24;;;;;;;13.55;9.15;;;;;;;9.64;73.05;102529.78;4949482;28;20062;-79
2023/04/19 01:47:49;;;;;;;15.55;8.80;;;;;;;9.65;73.25;102525.44;4949867;28;20031;-79
2023/04/19 01:50:15;;;;;;;13.90;8.63;;;;;;;9.67;73.22;102528.91;4945731;28;20035;-79
2023/04/19 01:52:40;;;;;;;12.80;8.63;;;;;;;9.69;73.17;102529.81;4949414;28;20027;-79
2023/04/19 01:55:06;;;;;;;13.05;9.05;;;;;;;9.71;73.24;102522.88;4949806;28;20031;-79
2023/04/19 01:57:31;;;;;;;13.95;9.27;;;;;;;9.72;73.39;102527.22;4953278;28;20031;-79
2023/04/19 01:59:56;;;;;;;12.75;8.32;;;;;;;9.73;73.65;102526.38;4953400;28;20031;-79
2023/04/19 02:02:22;;;;;;;14.40;8.93;;;;;;;9.76;73.26;102518.56;4951391;28;20058;-79
2023/04/19 02:04:47;;;;;;;12.90;8.85;;;;;;;9.76;73.25;102518.56;4952642;28;20035;-79
2023/04/19 02:07:12;;;;;;;14.43;8.82;;;;;;;9.75;73.29;102519.41;4950257;28;20042;-79
2023/04/19 02:09:38;;;;;;;14.32;9.23;;;;;;;9.76;73.23;102522.91;4947399;28;20031;-79
2023/04/19 02:12:04;;;;;;;14.73;9.40;;;;;;;9.75;73.37;102516.81;4951716;28;20497;-79
2023/04/19 02:14:30;;;;;;;15.57;9.90;;;;;;;9.72;73.23;102522.03;4950124;28;20031;-79
2023/04/19 02:16:56;;;;;;;13.70;9.32;;;;;;;9.74;73.48;102520.28;4949429;28;20085;-80
2023/04/19 02:19:21;;;;;;;12.68;8.90;;;;;;;9.73;73.72;102521.16;4951132;28;20031;-80
2023/04/19 02:21:46;;;;;;;13.80;8.95;;;;;;;9.72;73.90;102517.69;4958519;28;20031;-79
2023/04/19 02:24:11;;;;;;;12.27;8.48;;;;;;;9.75;73.71;102519.41;4949817;28;20027;-79
2023/04/19 02:26:38;;;;;;;14.18;8.60;;;;;;;9.76;73.82;102515.09;4948030;28;20031;-79
2023/04/19 02:29:03;;;;;;;13.45;8.57;;;;;;;9.77;73.68;102522.03;4948679;28;20128;-79
2023/04/19 02:31:28;;;;;;;14.48;9.38;;;;;;;9.78;74.11;102522.03;4949928;28;20134;-78
2023/04/19 02:33:53;;;;;;;12.63;8.25;;;;;;;9.78;73.93;102514.25;4953369;28;20474;-79
2023/04/19 02:36:19;;;;;;;13.30;8.68;;;;;;;9.78;73.95;102516.84;4948938;28;20043;-79
2023/04/19 02:38:44;;;;;;;12.70;8.80;;;;;;;9.78;74.10;102509.03;4949836;28;20046;-79
2023/04/19 02:41:09;;;;;;;12.82;8.10;;;;;;;9.78;74.29;102514.25;4948465;28;20035;-79
2023/04/19 02:43:35;;;;;;;12.25;8.10;;;;;;;9.76;74.29;102510.75;4952294;28;20027;-79
2023/04/19 02:46:00;;;;;;;11.82;8.10;;;;;;;9.76;74.18;102518.56;4949489;28;20087;-79
2023/04/19 02:48:25;;;;;;;14.65;8.43;;;;;;;9.76;74.14;102518.56;4951829;28;20032;-79
2023/04/19 02:50:51;;;;;;;11.68;8.10;;;;;;;9.75;74.41;102521.16;4948288;28;20598;-79
2023/04/19 02:53:16;;;;;;;15.15;8.10;;;;;;;9.72;74.48;102519.44;4949922;28;20034;-79
2023/04/19 02:55:41;;;;;;;9.95;7.38;;;;;;;9.72;74.13;102522.03;4950981;28;20028;-80
2023/04/19 02:58:07;;;;;;;11.65;8.15;;;;;;;9.71;73.96;102522.88;4950593;28;20616;-79
2023/04/19 03:00:32;;;;;;;12.43;8.23;;;;;;;9.71;74.33;102522.88;4946143;28;20023;-79
2023/04/19 03:02:57;;;;;;;12.43;7.80;;;;;;;9.70;74.57;102528.94;4947635;28;20032;-79
2023/04/19 03:05:22;;;;;;;10.45;7.80;;;;;;;9.68;74.62;102525.47;4949940;28;20035;-79
2023/04/19 03:07:48;;;;;;;11.02;7.55;;;;;;;9.67;74.54;102523.72;4947971;28;20463;-79
2023/04/19 03:10:13;;;;;;;13.63;7.72;;;;;;;9.70;73.87;102515.94;4952272;28;20082;-79
2023/04/19 03:12:38;;;;;;;11.60;7.75;;;;;;;9.67;74.36;102518.53;4950394;28;20053;-79
2023/04/19 03:15:05;;;;;;;12.10;8.13;;;;;;;9.67;74.61;102524.56;4952497;28;20127;-79
2023/04/19 03:17:30;;;;;;;11.43;7.47;;;;;;;9.66;74.60;102515.03;4952681;28;20486;-80
2023/04/19 03:19:56;;;;;;;10.25;7.22;;;;;;;9.67;74.40;102515.94;4953267;28;20038;-79
2023/04/19 03:22:21;;;;;;;12.20;7.93;;;;;;;9.66;74.57;102514.19;4953762;28;20386;-80
2023/04/19 03:24:46;;;;;;;11.30;7.80;;;;;;;9.65;74.54;102515.03;4951596;28;20497;-79
2023/04/19 03:27:12;;;;;;;11.27;7.25;;;;;;;9.64;74.60;102519.38;4956300;28;20058;-79
2023/04/19 03:29:37;;;;;;;12.55;7.90;;;;;;;9.64;75.06;102513.31;4951895;28;20069;-79
2023/04/19 03:32:02;;;;;;;10.82;7.70;;;;;;;9.61;74.88;102519.38;4953353;28;20039;-79
2023/04/19 03:34:27;;;;;;;12.18;7.40;;;;;;;9.59;74.88;102505.50;4954087;28;20059;-79
2023/04/19 03:36:53;;;;;;;10.73;7.07;;;;;;;9.60;74.67;102508.94;4951331;28;20035;-79
2023/04/19 03:39:19;;;;;;;11.93;7.30;;;;;;;9.60;74.88;102511.53;4950678;28;20542;-79
2023/04/19 03:41:44;;;;;;;11.23;7.72;;;;;;;9.60;75.07;102516.75;4954624;28;20154;-79
2023/04/19 03:44:09;;;;;;;12.55;7.22;;;;;;;9.59;74.55;102517.59;4951159;28;20380;-79
2023/04/19 03:46:34;;;;;;;11.13;7.30;;;;;;;9.55;74.77;102509.81;4954360;28;20487;-79
2023/04/19 03:49:00;;;;;;;12.85;7.65;;;;;;;9.55;74.73;102508.94;4952452;28;20034;-79
2023/04/19 03:51:26;;;;;;;12.82;7.68;;;;;;;9.53;74.67;102510.66;4949450;28;20055;-79
2023/04/19 03:53:51;;;;;;;11.25;7.15;;;;;;;9.50;74.73;102516.72;4951008;28;20108;-78
2023/04/19 03:56:16;;;;;;;10.40;7.43;;;;;;;9.47;75.08;102511.50;4953408;28;20190;-79
2023/04/19 03:58:41;;;;;;;11.93;7.75;;;;;;;9.47;74.73;102505.44;4954394;28;20027;-79
2023/04/19 04:01:07;;;;;;;11.18;7.30;;;;;;;9.44;74.97;102510.59;4953309;28;20034;-79
2023/04/19 04:03:33;;;;;;;10.07;6.93;;;;;;;9.43;74.49;102514.91;4955304;28;20035;-79
2023/04/19 04:05:59;;;;;;;12.65;7.32;;;;;;;9.41;74.62;102511.44;4955912;28;20031;-79
2023/04/19 04:08:24;;;;;;;10.13;7.03;;;;;;;9.40;74.39;102514.91;4953208;28;20036;-79
2023/04/19 04:10:49;;;;;;;9.63;6.82;;;;;;;9.38;74.56;102516.63;4950998;28;20554;-79
2023/04/19 04:13:14;;;;;;;9.82;6.55;;;;;;;9.37;74.57;102510.56;4951470;28;20034;-79
2023/04/19 04:15:40;;;;;;;10.23;6.72;;;;;;;9.36;74.68;102514.00;4954325;28;20045;-79
2023/04/19 04:18:05;;;;;;;10.07;6.70;;;;;;;9.31;74.66;102518.31;4952616;28;21703;-79
2023/04/19 04:20:30;;;;;;;10.43;6.85;;;;;;;9.30;74.46;102515.72;4950045;28;20038;-79
2023/04/19 04:22:55;;;;;;;10.00;6.60;;;;;;;9.25;73.92;102516.53;4949455;28;20038;-78
2023/04/19 04:25:21;;;;;;;9.13;6.22;;;;;;;9.19;73.95;102521.72;4952883;28;20781;-78
2023/04/19 04:27:50;;;;;;;10.07;6.28;;;;;;;9.11;74.04;102512.97;4953608;28;20035;-79
2023/04/19 04:30:15;;;;;;;10.02;6.50;;;;;;;9.03;74.40;102519.84;4950275;28;20059;-78
2023/04/19 04:32:40;;;;;;;8.07;5.60;;;;;;;8.97;73.81;102525.84;4951518;28;20031;-79
2023/04/19 04:35:08;;;;;;;9.07;6.22;;;;;;;8.89;74.09;102517.13;4954660;28;20046;-79
2023/04/19 04:37:34;;;;;;;9.20;5.68;;;;;;;8.81;73.78;102519.66;4950088;28;20505;-79
2023/04/19 04:40:00;;;;;;;9.00;5.60;;;;;;;8.76;73.87;102526.53;4946786;28;20031;-79
2023/04/19 04:42:26;;;;;;;8.75;5.72;;;;;;;8.71;73.97;102523.06;4951493;28;20027;-78
2023/04/19 04:44:52;;;;;;;9.38;6.10;;;;;;;8.67;74.02;102516.09;4950457;28;20030;-80
2023/04/19 04:47:17;;;;;;;8.82;5.68;;;;;;;8.61;73.99;102522.94;4956627;28;20069;-83
2023/04/19 04:49:42;;;;;;;8.05;5.57;;;;;;;8.60;73.92;102523.81;4952149;28;20027;-79
2023/04/19 04:52:08;;;;;;;9.90;6.45;;;;;;;8.55;73.74;102525.47;4951673;28;20031;-79
2023/04/19 04:54:33;;;;;;;7.78;5.32;;;;;;;8.51;74.51;102531.50;4953512;28;20030;-79
2023/04/19 04:56:59;;;;;;;9.27;4.95;;;;;;;8.49;74.29;102530.63;4951444;28;20049;-79
2023/04/19 04:59:25;;;;;;;9.90;5.20;;;;;;;8.45;74.56;102526.22;4956361;28;20407;-79
2023/04/19 05:01:50;;;;;;;9.23;5.15;;;;;;;8.43;74.60;102534.00;4949129;28;20042;-78
2023/04/19 05:04:17;;;;;;;9.85;5.63;;;;;;;8.42;74.51;102531.34;4947331;28;20027;-79
2023/04/19 05:06:43;;;;;;;9.05;5.47;;;;;;;8.42;74.67;102526.16;4949878;28;20038;-79
2023/04/19 05:09:09;;;;;;;8.43;5.70;;;;;;;8.38;74.97;102530.47;4952189;28;20491;-78
2023/04/19 05:11:34;;;;;;;8.57;5.85;;;;;;;8.37;74.59;102528.72;4952759;28;20134;-78
2023/04/19 05:14:00;;;;;;;8.63;5.68;;;;;;;8.32;74.88;102520.91;4951585;28;20162;-79
2023/04/19 05:16:26;;;;;;;8.23;5.47;;;;;;;8.29;74.77;102528.63;4957926;28;20065;-79
2023/04/19 05:18:51;;;;;;;9.10;5.70;;;;;;;8.26;75.03;102527.75;4946856;28;20089;-79
2023/04/19 05:21:16;;;;;;;8.07;5.40;;;;;;;8.23;74.90;102525.97;4952338;28;20382;-79
2023/04/19 05:23:42;;;;;;;11.50;5.32;;;;;;;8.18;74.77;102528.50;4952156;28;20035;-79
2023/04/19 05:26:11;;;;;;;8.98;5.28;;;;;;;8.15;75.05;102530.22;4951645;28;20437;-79
2023/04/19 05:28:36;;;;;;;7.75;5.47;;;;;;;8.15;75.03;102532.81;4947150;28;20035;-79
2023/04/19 05:31:01;;;;;;;8.77;5.60;;;;;;;8.13;74.94;102537.09;4948055;28;20047;-79
2023/04/19 05:33:27;;;;;;;7.93;5.32;;;;;;;8.18;74.47;102538.03;4948407;28;20399;-79
2023/04/19 05:35:52;;;;;;;10.43;5.80;;;;;;;8.20;74.42;102538.91;4946240;28;20028;-78
2023/04/19 05:38:17;;;;;;;9.57;5.22;;;;;;;8.23;75.05;102536.34;4952875;28;20426;-78
2023/04/19 05:40:43;;;;;;;12.13;5.55;;;;;;;8.27;74.24;102525.16;4949755;28;20471;-78
2023/04/19 05:43:08;;;;;;;8.13;5.00;;;;;;;8.34;74.24;102528.69;4947807;28;20035;-79
2023/04/19 05:45:33;;;;;;;8.88;5.10;;;;;;;8.42;73.95;102531.34;4947738;28;20023;-79
2023/04/19 05:47:58;;;;;;;8.48;5.32;;;;;;;8.47;73.13;102535.72;4946539;28;20039;-79
2023/04/19 05:50:23;;;;;;;7.28;4.95;;;;;;;8.52;72.76;102533.25;4948853;28;20027;-79
2023/04/19 05:52:49;;;;;;;8.35;5.40;;;;;;;8.57;71.96;102528.09;4946274;28;20058;-79
2023/04/19 05:55:14;;;;;;;8.60;4.82;;;;;;;8.62;71.20;102529.88;4946125;28;20031;-78
2023/04/19 05:57:40;;;;;;;8.70;4.72;;;;;;;8.67;70.58;102534.25;4950730;28;20034;-79
2023/04/19 06:00:08;;;;;;;7.60;4.55;;;;;;;8.74;70.59;102531.72;4945799;28;20037;-78
2023/04/19 06:02:33;;;;;;;7.47;4.30;;;;;;;8.80;70.50;102528.31;4940271;28;20035;-78
2023/04/19 06:04:58;;;;;;;8.50;5.00;;;;;;;8.86;68.64;102525.78;4945057;28;20031;-78
2023/04/19 06:07:24;;;;;;;7.50;5.13;;;;;;;8.86;69.09;102519.69;4944634;28;20106;-78
2023/04/19 06:09:49;;;;;;;6.85;4.65;;;;;;;8.81;67.80;102533.50;4949119;28;20066;-79
2023/04/19 06:12:14;;;;;;;7.35;4.78;;;;;;;8.76;67.73;102537.81;4953358;28;20035;-78
2023/04/19 06:14:39;;;;;;;8.50;5.20;;;;;;;8.74;67.01;102528.25;4947736;28;20030;-79
2023/04/19 06:17:05;;;;;;;9.30;4.70;;;;;;;8.72;66.77;102530.84;4945943;28;20031;-79
2023/04/19 06:19:32;;;;;;;7.35;4.65;;;;;;;8.70;67.00;102531.69;4949695;28;20051;-79
2023/04/19 06:21:58;;;;;;;10.15;5.13;;;;;;;8.72;66.64;102536.03;4945264;28;20110;-79
2023/04/19 06:24:23;;;;;;;8.63;5.25;;;;;;;8.72;67.58;102537.72;4948704;28;20452;-80
2023/04/19 06:26:49;;;;;;;7.03;4.78;;;;;;;8.79;67.14;102536.94;4948335;28;20138;-79
2023/04/19 06:29:14;;;;;;;9.95;5.10;;;;;;;8.86;66.15;102538.75;4949465;28;20031;-79
2023/04/19 06:31:40;;;;;;;8.55;4.75;;;;;;;8.90;65.82;102535.31;4950472;28;20102;-79
2023/04/19 06:34:05;;;;;;;8.45;4.43;;;;;;;8.95;65.54;102543.16;4953062;28;20098;-79
2023/04/19 06:36:31;;;;;;;7.60;4.90;;;;;;;9.00;65.45;102546.63;4950118;28;20447;-80
2023/04/19 06:38:56;;;;;;;9.63;4.82;;;;;;;9.04;65.43;102538.03;4946178;28;20039;-79
2023/04/19 06:41:21;;;;;;;8.07;4.90;;;;;;;9.09;64.23;102540.66;4947083;28;20040;-79
2023/04/19 06:43:47;;;;;;;8.02;4.90;;;;;;;9.11;64.55;102546.72;4945565;28;20067;-79
2023/04/19 06:46:13;;;;;;;7.03;4.47;;;;;;;9.12;63.83;102538.09;4950016;28;20059;-79
2023/04/19 06:48:38;;;;;;;7.82;5.03;;;;;;;9.18;63.06;102535.53;4945063;28;20029;-79
2023/04/19 06:51:04;;;;;;;6.80;4.57;;;;;;;9.19;62.57;102542.47;4951930;28;20505;-79
2023/04/19 06:53:29;;;;;;;6.35;4.50;;;;;;;9.20;62.76;102531.25;4950352;28;20031;-79
2023/04/19 06:56:03;;;;;;;8.90;4.80;;;;;;;9.26;62.25;102541.66;4942948;28;20094;-79
2023/04/19 06:58:28;;;;;;;8.27;4.90;;;;;;;9.27;63.07;102535.59;4954663;28;20026;-79
2023/04/19 07:00:54;;;;;;;8.65;4.90;;;;;;;9.29;62.28;102546.03;4949091;28;20450;-78
2023/04/19 07:03:20;;;;;;;8.52;4.57;;;;;;;9.31;62.32;102551.22;4950420;28;20094;-79
2023/04/19 07:05:45;;;;;;;8.55;4.45;;;;;;;9.35;61.70;102547.78;4949281;28;20024;-79
2023/04/19 07:08:11;;;;;;;8.85;5.30;;;;;;;9.38;60.02;102543.47;4944966;28;20038;-79
2023/04/19 07:10:36;;;;;;;6.43;4.25;;;;;;;9.41;59.95;102543.50;4950180;28;20039;-79
2023/04/19 07:13:01;;;;;;;7.97;4.47;;;;;;;9.43;60.21;102540.91;4951782;28;20063;-79
2023/04/19 07:15:26;;;;;;;8.15;4.78;;;;;;;9.46;60.75;102547.84;4950457;28;20027;-79
2023/04/19 07:17:52;;;;;;;7.00;4.60;;;;;;;9.49;59.58;102540.94;4949535;28;20035;-79
2023/04/19 07:20:17;;;;;;;8.13;4.80;;;;;;;9.51;59.96;102539.22;4943435;28;20472;-79
2023/04/19 07:22:42;;;;;;;6.53;4.25;;;;;;;9.55;60.28;102538.41;4944169;28;20031;-79
2023/04/19 07:25:08;;;;;;;7.32;4.38;;;;;;;9.61;58.48;102534.06;4945231;28;20035;-79
2023/04/19 07:27:33;;;;;;;8.40;4.80;;;;;;;9.62;59.47;102533.22;4945737;28;20063;-79
2023/04/19 07:29:59;;;;;;;9.50;5.05;;;;;;;9.66;60.64;102537.56;4947025;28;20047;-79
2023/04/19 07:32:24;;;;;;;7.00;4.38;;;;;;;9.72;59.65;102540.22;4947948;28;20074;-79
2023/04/19 07:34:50;;;;;;;7.85;4.72;;;;;;;9.77;58.85;102540.22;4945954;28;20403;-80
2023/04/19 07:37:15;;;;;;;6.90;4.30;;;;;;;9.78;58.24;102537.63;4944032;28;20035;-79
2023/04/19 07:39:41;;;;;;;6.43;4.43;;;;;;;9.82;58.94;102543.75;4942863;28;20083;-79
2023/04/19 07:42:06;;;;;;;6.75;4.57;;;;;;;9.83;58.08;102535.94;4938876;28;20023;-79
2023/04/19 07:44:31;;;;;;;6.65;4.20;;;;;;;9.86;58.52;102535.94;4942351;28;20398;-78
2023/04/19 07:46:56;;;;;;;8.18;4.47;;;;;;;9.91;56.79;102540.28;4941296;28;20035;-80
2023/04/19 07:49:22;;;;;;;6.43;4.10;;;;;;;9.90;57.44;102535.97;4944866;28;20117;-79
2023/04/19 07:51:47;;;;;;;8.10;4.20;;;;;;;9.93;57.74;102542.03;4943067;28;20042;-79
2023/04/19 07:54:15;;;;;;;6.43;4.18;;;;;;;9.94;56.49;102538.59;4944613;28;20050;-79
2023/04/19 07:56:40;;;;;;;6.35;4.30;;;;;;;9.97;56.12;102543.81;4940184;28;20066;-79
2023/04/19 07:59:05;;;;;;;8.13;4.18;;;;;;;9.97;55.18;102538.59;4943157;28;20136;-79
2023/04/19 08:01:31;;;;;;;6.60;4.13;;;;;;;9.99;55.42;102539.44;4945014;28;20031;-79
2023/04/19 08:03:56;;;;;;;7.47;4.30;;;;;;;10.02;55.20;102530.81;4944252;28;20071;-79
2023/04/19 08:06:21;;;;;;;8.65;4.47;;;;;;;10.05;55.13;102533.44;4941738;28;20046;-79
2023/04/19 08:08:47;;;;;;;7.03;4.07;;;;;;;10.08;56.40;102538.63;4942458;28;20039;-79
2023/04/19 08:11:12;;;;;;;7.22;4.10;;;;;;;10.09;55.35;102527.34;4942595;28;20023;-79
2023/04/19 08:13:38;;;;;;;6.03;4.25;;;;;;;10.12;55.05;102524.78;4948330;28;20482;-79
2023/04/19 08:16:03;;;;;;;6.57;4.30;;;;;;;10.13;54.39;102528.25;4940352;28;20122;-79
2023/04/19 08:18:30;;;;;;;9.10;4.10;;;;;;;10.18;54.76;102531.72;4945543;28;20024;-79
2023/04/19 08:20:56;;;;;;;7.47;3.97;;;;;;;10.22;54.76;102537.81;4945150;28;20037;-79
2023/04/19 08:23:21;;;;;;;6.38;3.60;;;;;;;10.28;53.67;102535.22;4941020;28;20037;-79
2023/04/19 08:25:46;;;;;;;8.55;3.92;;;;;;;10.32;54.60;102523.97;4943866;28;20031;-80
2023/04/19 08:28:12;;;;;;;7.53;3.85;;;;;;;10.38;55.98;102531.81;4942730;28;20090;-79
2023/04/19 08:30:37;;;;;;;8.77;4.00;;;;;;;10.40;53.06;102527.50;4944069;28;20864;-80
2023/04/19 08:33:02;;;;;;;5.78;3.38;;;;;;;10.43;54.35;102517.06;4942477;28;20034;-80
2023/04/19 08:35:28;;;;;;;5.63;3.80;;;;;;;10.48;52.33;102522.31;4947132;28;20158;-79
2023/04/19 08:37:53;;;;;;;7.70;3.72;;;;;;;10.48;51.76;102524.91;4942501;28;20031;-79
2023/04/19 08:40:18;;;;;;;7.53;3.65;;;;;;;10.51;52.34;102524.03;4945271;28;20044;-78
2023/04/19 08:42:44;;;;;;;6.57;3.60;;;;;;;10.51;52.38;102519.69;4941702;28;20043;-79
2023/04/19 08:45:12;;;;;;;5.07;3.22;;;;;;;10.55;52.25;102516.22;4949806;28;20031;-78
2023/04/19 08:47:38;;;;;;;6.22;3.38;;;;;;;10.57;51.67;102524.06;4944053;28;20062;-79
2023/04/19 08:50:05;;;;;;;4.90;3.17;;;;;;;10.58;50.03;102521.44;4943616;28;20031;-79
2023/04/19 08:52:33;;;;;;;5.40;3.17;;;;;;;10.59;50.14;102520.59;4943194;28;20442;-79
2023/04/19 08:55:07;;;;;;;4.38;3.03;;;;;;;10.58;50.75;102518.00;4942379;28;20035;-79
2023/04/19 08:57:34;;;;;;;5.55;2.90;;;;;;;10.63;51.58;102517.13;4943145;28;20062;-79
2023/04/19 09:00:00;;;;;;;6.75;3.03;;;;;;;10.65;50.16;102516.25;4945195;28;20016;-79
2023/04/19 09:02:26;;;;;;;4.47;2.90;;;;;;;10.67;49.97;102514.53;4943960;28;20038;-79
2023/04/19 09:04:51;;;;;;;7.43;3.05;;;;;;;10.69;51.09;102518.84;4953139;28;20027;-79
2023/04/19 09:07:24;;;;;;;3.85;2.95;;;;;;;10.72;50.51;102524.06;4945962;28;20487;-79
2023/04/19 09:10:19;;;;;;;6.10;2.60;;;;;;;10.75;52.08;102521.47;4942331;28;20467;-79
2023/04/19 09:13:02;;;;;;;6.38;2.53;;;;;;;10.78;51.23;102516.25;4942969;28;20075;-79
2023/04/19 09:15:36;;;;;;;3.30;2.35;;;;;;;10.77;47.92;102513.66;4949842;28;20078;-79
2023/04/19 09:18:07;;;;;;;6.40;2.90;;;;;;;10.76;49.67;102510.16;4954125;28;20031;-79
2023/04/19 09:20:36;;;;;;;5.23;2.63;;;;;;;10.78;50.48;102508.44;4953691;28;20323;-79
2023/04/19 09:23:06;;;;;;;4.97;2.78;;;;;;;10.82;48.63;102509.31;4942840;28;20294;-79
2023/04/19 09:25:32;;;;;;;7.65;3.03;;;;;;;10.84;48.60;102506.72;4940518;28;20032;-79
2023/04/19 09:28:18;;;;;;;4.60;2.60;;;;;;;10.85;50.52;102511.06;4940628;28;20050;-79
2023/04/19 09:30:43;;;;;;;4.68;2.80;;;;;;;10.89;51.25;102516.25;4949304;28;20047;-79
2023/04/19 09:33:08;;;;;;;7.25;3.00;;;;;;;10.92;48.61;102518.00;4953871;28;20490;-79
2023/04/19 09:35:46;;;;;;;4.18;2.55;;;;;;;10.91;50.10;102513.66;4947062;28;20032;-79
2023/04/19 09:38:11;;;;;;;5.38;2.80;;;;;;;10.91;47.07;102511.06;4943210;28;20443;-79
2023/04/19 09:40:38;;;;;;;5.75;3.05;;;;;;;10.96;49.58;102509.31;4940864;28;20038;-79
2023/04/19 09:43:03;;;;;;;3.83;2.70;;;;;;;11.00;48.20;102508.44;4941627;28;20039;-79
2023/04/19 09:45:45;;;;;;;4.57;2.40;;;;;;;11.04;49.78;102499.75;4943542;28;20033;-78
2023/04/19 09:48:12;;;;;;;4.95;2.65;;;;;;;11.07;51.25;102510.19;4941009;28;20028;-79
2023/04/19 09:50:51;;;;;;;6.43;2.88;;;;;;;11.12;50.10;102501.47;4939288;28;20050;-79
2023/04/19 09:53:20;;;;;;;4.57;2.60;;;;;;;11.16;50.11;102503.22;4943570;28;20069;-79
2023/04/19 09:55:48;;;;;;;4.28;2.58;;;;;;;11.18;48.47;102496.28;4939348;28;20031;-79
2023/04/19 09:58:15;;;;;;;4.43;2.58;;;;;;;11.20;47.91;102495.38;4939799;28;20051;-79
2023/04/19 10:00:43;;;;;;;5.10;2.92;;;;;;;11.21;47.30;102493.66;4942190;28;20102;-79
2023/04/19 10:03:09;;;;;;;4.20;2.17;;;;;;;11.25;46.18;102495.41;4939691;28;20094;-79
2023/04/19 10:05:39;;;;;;;6.22;2.38;;;;;;;11.28;46.69;102492.75;4946656;28;20102;-79
2023/04/19 10:08:06;;;;;;;3.03;2.03;;;;;;;11.32;45.57;102493.66;4934729;28;20058;-79
2023/04/19 10:10:31;;;;;;;3.20;2.03;;;;;;;11.32;46.66;102502.31;4944596;28;20194;-78
2023/04/19 10:12:59;;;;;;;3.25;2.00;;;;;;;11.30;44.78;102496.22;4944599;28;20102;-79
2023/04/19 10:15:26;;;;;;;4.18;1.90;;;;;;;11.32;44.11;102494.50;4943951;28;20411;-79
2023/04/19 10:17:51;;;;;;;3.28;1.73;;;;;;;11.30;45.83;102498.84;4947463;28;20178;-78
2023/04/19 10:20:35;;;;;;;3.67;1.67;;;;;;;11.35;46.23;102489.28;4942087;28;20035;-79
2023/04/19 10:23:01;;;;;;;2.53;1.48;;;;;;;11.29;45.07;102494.50;4941976;28;20122;-79
2023/04/19 10:25:28;;;;;;;5.00;1.60;;;;;;;11.28;43.40;102497.97;4945943;28;20185;-79
2023/04/19 10:27:54;;;;;;;2.83;1.50;;;;;;;11.28;44.28;102486.69;4944486;28;20094;-79
2023/04/19 10:30:21;;;;;;;3.78;1.60;;;;;;;11.32;44.56;102478.00;4944827;28;20052;-79
2023/04/19 10:32:55;;;;;;;3.58;1.40;;;;;;;11.36;45.00;102485.81;4953005;28;20033;-79
2023/04/19 10:35:24;;;;;;;2.92;1.40;;;;;;;11.37;43.38;102479.72;4954014;28;20031;-79
2023/04/19 10:38:08;;;;;;;2.17;1.30;;;;;;;11.40;43.97;102478.84;4949880;28;20158;-79
2023/04/19 10:41:00;;;;;;;4.13;1.30;;;;;;;11.46;43.42;102481.44;4946253;28;20034;-79
2023/04/19 10:43:31;;;;;;;4.45;1.42;;;;;;;11.45;42.72;102476.22;4945075;28;21502;-79
2023/04/19 10:46:05;;;;;;;2.17;1.40;;;;;;;11.46;40.86;102485.78;4943339;28;20027;-79
2023/04/19 10:48:32;;;;;;;4.22;1.42;;;;;;;11.43;41.20;102480.59;4944730;28;20027;-79
2023/04/19 10:51:13;;;;;;;2.55;1.38;;;;;;;11.44;43.57;102485.78;4942647;28;20550;-79
2023/04/19 10:53:58;;;;;;;2.28;1.50;;;;;;;11.44;41.86;102477.13;4945355;28;20037;-79
2023/04/19 10:56:35;;;;;;;2.40;1.80;;;;;;;11.49;42.87;102483.16;4942369;28;20029;-79
2023/04/19 10:59:06;;;;;;;6.75;2.17;;;;;;;11.48;43.82;102481.44;4944776;28;20023;-79
2023/04/19 11:01:43;;;;;;;2.38;1.70;;;;;;;11.51;44.16;102473.59;4943669;28;20479;-78
2023/04/19 11:04:17;;;;;;;5.68;1.90;;;;;;;11.53;45.90;102487.50;4946796;28;20106;-78
2023/04/19 11:06:51;;;;;;;3.22;1.50;;;;;;;11.53;44.15;102488.34;4954314;28;20371;-78
2023/04/19 11:09:41;;;;;;;3.70;1.67;;;;;;;11.51;44.16;102474.47;4951997;28;20118;-79
2023/04/19 11:12:17;;;;;;;3.20;1.77;;;;;;;11.54;43.81;102471.00;4949440;28;20066;-79
2023/04/19 11:14:45;;;;;;;4.20;1.77;;;;;;;11.62;49.18;102471.81;4940469;28;20027;-79
2023/04/19 11:17:16;;;;;;;2.13;1.52;;;;;;;11.71;42.86;102470.06;4949264;28;20118;-78
2023/04/19 11:19:44;;;;;;;3.60;1.55;;;;;;;11.78;43.40;102466.56;4943089;28;20038;-79
2023/04/19 11:22:09;;;;;;;2.35;1.52;;;;;;;11.87;42.65;102460.44;4943308;28;20027;-79
2023/04/19 11:24:34;;;;;;;4.35;1.58;;;;;;;11.93;44.04;102469.09;4946663;28;20090;-78